createdAt,value
2023-03-11T00:01:47.822Z,85.29
2023-03-11T00:04:15.733Z,85.08
2023-03-11T00:06:43.768Z,85.47
2023-03-11T00:09:11.665Z,85.42
2023-03-11T00:11:39.671Z,85.29
2023-03-11T00:14:09.017Z,85.32
2023-03-11T00:16:37.041Z,85.02
2023-03-11T00:19:04.869Z,85.21
2023-03-11T00:21:32.777Z,85.23
2023-03-11T00:24:03.705Z,85.32
2023-03-11T00:26:31.576Z,85.39
2023-03-11T00:28:59.614Z,85.43
2023-03-11T00:31:28.937Z,85.32
2023-03-11T00:33:57.328Z,85.35
2023-03-11T00:36:31.545Z,85.03
2023-03-11T00:38:59.991Z,85.27
2023-03-11T00:41:27.855Z,84.91
2023-03-11T00:43:55.854Z,85.17
2023-03-11T00:46:23.784Z,84.97
2023-03-11T00:48:53.326Z,85.12
2023-03-11T00:51:21.193Z,85.10
2023-03-11T00:53:49.254Z,84.91
2023-03-11T00:56:17.843Z,84.90
2023-03-11T00:58:46.204Z,84.83
2023-03-11T01:01:17.373Z,84.84
2023-03-11T01:03:46.117Z,84.67
2023-03-11T01:06:15.498Z,84.99
2023-03-11T01:08:43.433Z,84.56
2023-03-11T01:11:11.391Z,84.94
2023-03-11T01:13:40.356Z,84.70
2023-03-11T01:16:09.380Z,84.47
2023-03-11T01:18:37.468Z,84.68
2023-03-11T01:21:05.984Z,84.63
2023-03-11T01:23:35.192Z,84.37
2023-03-11T01:26:03.051Z,84.59
2023-03-11T01:28:31.045Z,84.20
2023-03-11T01:30:58.929Z,84.62
2023-03-11T01:33:26.776Z,84.54
2023-03-11T01:35:54.802Z,84.34
2023-03-11T01:38:22.748Z,84.51
2023-03-11T01:40:53.230Z,84.28
2023-03-11T01:43:47.736Z,84.47
2023-03-11T01:46:18.415Z,84.44
2023-03-11T01:48:48.819Z,84.36
2023-03-11T01:51:20.483Z,84.52
2023-03-11T01:53:48.579Z,84.50
2023-03-11T01:56:18.185Z,84.08
2023-03-11T01:58:50.158Z,84.49
2023-03-11T02:01:18.294Z,84.29
2023-03-11T02:03:46.345Z,84.37
2023-03-11T02:06:17.738Z,84.27
2023-03-11T02:08:46.968Z,84.33
2023-03-11T02:11:20.592Z,84.39
2023-03-11T02:13:50.164Z,84.25
2023-03-11T02:16:18.494Z,84.45
2023-03-11T02:18:46.513Z,84.29
2023-03-11T02:21:25.202Z,84.22
2023-03-11T02:24:01.080Z,84.21
2023-03-11T02:26:35.994Z,84.07
2023-03-11T02:29:07.677Z,84.05
2023-03-11T02:31:38.420Z,84.45
2023-03-11T02:34:09.802Z,84.37
2023-03-11T02:36:40.328Z,84.51
2023-03-11T02:39:09.765Z,84.27
2023-03-11T02:41:40.189Z,84.38
2023-03-11T02:44:12.110Z,84.17
2023-03-11T02:46:43.432Z,84.51
2023-03-11T02:49:12.140Z,84.29
2023-03-11T02:51:39.976Z,84.36
2023-03-11T02:54:08.135Z,84.47
2023-03-11T02:56:35.943Z,84.36
2023-03-11T02:59:03.781Z,84.43
2023-03-11T03:01:33.158Z,84.52
2023-03-11T03:04:01.037Z,84.85
2023-03-11T03:06:29.340Z,84.67
2023-03-11T03:08:57.605Z,84.74
2023-03-11T03:11:25.456Z,84.65
2023-03-11T03:13:53.293Z,84.78
2023-03-11T03:16:21.938Z,85.07
2023-03-11T03:18:51.636Z,85.07
2023-03-11T03:21:19.519Z,85.05
2023-03-11T03:23:47.764Z,85.17
2023-03-11T03:26:15.660Z,85.21
2023-03-11T03:28:43.528Z,85.42
2023-03-11T03:31:12.461Z,85.19
2023-03-11T03:33:40.352Z,85.24
2023-03-11T03:36:12.087Z,85.45
2023-03-11T03:38:40.526Z,85.37
2023-03-11T03:41:08.406Z,85.27
2023-03-11T03:43:36.244Z,85.49
2023-03-11T03:46:05.720Z,85.35
2023-03-11T03:48:33.945Z,85.16
2023-03-11T03:51:05.528Z,85.43
2023-03-11T03:53:37.150Z,85.11
2023-03-11T03:56:06.035Z,85.38
2023-03-11T03:58:34.044Z,85.28
2023-03-11T04:01:02.096Z,85.22
2023-03-11T04:03:30.182Z,85.20
2023-03-11T04:06:07.603Z,85.34
2023-03-11T04:08:37.205Z,84.95
2023-03-11T04:11:05.476Z,85.14
2023-03-11T04:13:33.644Z,85.02
2023-03-11T04:16:03.810Z,85.25
2023-03-11T04:18:31.704Z,84.96
2023-03-11T04:20:59.753Z,84.87
2023-03-11T04:23:27.603Z,84.98
2023-03-11T04:25:56.995Z,85.01
2023-03-11T04:28:25.002Z,84.98
2023-03-11T04:30:53.004Z,85.05
2023-03-11T04:33:21.424Z,84.96
2023-03-11T04:35:49.441Z,84.99
2023-03-11T04:38:17.452Z,84.57
2023-03-11T04:40:45.359Z,84.78
2023-03-11T04:43:14.636Z,84.87
2023-03-11T04:45:43.476Z,84.83
2023-03-11T04:48:11.385Z,84.87
2023-03-11T04:50:39.344Z,85.00
2023-03-11T04:53:07.191Z,84.54
2023-03-11T04:55:35.023Z,84.80
2023-03-11T04:58:02.995Z,84.75
2023-03-11T05:00:32.205Z,84.68
2023-03-11T05:03:00.104Z,84.43
2023-03-11T05:05:28.175Z,84.49
2023-03-11T05:07:56.039Z,84.66
2023-03-11T05:10:23.967Z,84.82
2023-03-11T05:12:52.399Z,84.76
2023-03-11T05:15:20.638Z,84.47
2023-03-11T05:17:49.907Z,84.37
2023-03-11T05:20:18.261Z,84.53
2023-03-11T05:22:46.242Z,84.56
2023-03-11T05:25:14.180Z,84.39
2023-03-11T05:27:42.079Z,84.56
2023-03-11T05:30:11.189Z,84.69
2023-03-11T05:32:39.206Z,84.71
2023-03-11T05:35:09.722Z,84.47
2023-03-11T05:37:39.256Z,84.59
2023-03-11T05:40:08.599Z,84.57
2023-03-11T05:42:36.631Z,84.36
2023-03-11T05:45:05.008Z,84.52
2023-03-11T05:47:32.950Z,84.49
2023-03-11T05:50:01.020Z,84.22
2023-03-11T05:52:32.738Z,84.32
2023-03-11T05:55:00.714Z,84.41
2023-03-11T05:57:28.650Z,84.52
2023-03-11T05:59:56.493Z,84.38
2023-03-11T06:02:24.524Z,84.25
2023-03-11T06:04:52.642Z,84.50
2023-03-11T06:07:20.512Z,84.51
2023-03-11T06:09:51.107Z,84.35
2023-03-11T06:12:19.251Z,84.49
2023-03-11T06:14:47.344Z,84.53
2023-03-11T06:17:15.232Z,84.27
2023-03-11T06:19:43.216Z,84.43
2023-03-11T06:22:11.049Z,84.29
2023-03-11T06:24:39.040Z,84.37
2023-03-11T06:27:09.397Z,83.89
2023-03-11T06:29:37.235Z,84.20
2023-03-11T06:32:05.389Z,84.27
2023-03-11T06:34:33.375Z,84.34
2023-03-11T06:37:01.311Z,83.97
2023-03-11T06:39:29.335Z,84.51
2023-03-11T06:41:57.224Z,84.04
2023-03-11T06:44:26.535Z,84.22
2023-03-11T06:46:57.609Z,84.19
2023-03-11T06:49:25.593Z,83.95
2023-03-11T06:51:53.532Z,84.15
2023-03-11T06:54:21.444Z,84.46
2023-03-11T06:56:49.496Z,84.12
2023-03-11T06:59:17.359Z,84.21
2023-03-11T07:01:46.900Z,84.45
2023-03-11T07:04:14.934Z,84.39
2023-03-11T07:06:43.351Z,84.48
2023-03-11T07:09:11.283Z,84.69
2023-03-11T07:11:39.323Z,84.43
2023-03-11T07:14:07.260Z,84.17
2023-03-11T07:16:35.353Z,83.88
2023-03-11T07:19:04.727Z,84.07
2023-03-11T07:21:34.025Z,83.79
2023-03-11T07:24:03.656Z,83.80
2023-03-11T07:26:33.356Z,83.21
2023-03-11T07:29:01.914Z,83.66
2023-03-11T07:31:31.383Z,83.71
2023-03-11T07:34:00.576Z,83.74
2023-03-11T07:36:30.550Z,83.42
2023-03-11T07:39:04.223Z,83.24
2023-03-11T07:41:34.270Z,83.45
2023-03-11T07:44:03.741Z,83.33
2023-03-11T07:46:32.307Z,83.29
2023-03-11T07:49:01.647Z,83.63
2023-03-11T07:51:33.093Z,83.11
2023-03-11T07:54:02.032Z,83.48
2023-03-11T07:56:32.051Z,83.20
2023-03-11T07:59:01.671Z,83.06
2023-03-11T08:01:36.324Z,83.33
2023-03-11T08:04:06.172Z,83.24
2023-03-11T08:06:37.080Z,83.25
2023-03-11T08:09:07.267Z,82.98
2023-03-11T08:11:35.308Z,82.59
2023-03-11T08:14:03.662Z,82.33
2023-03-11T08:16:31.960Z,82.22
2023-03-11T08:18:59.841Z,82.06
2023-03-11T08:21:30.167Z,82.08
2023-03-11T08:24:01.193Z,81.67
2023-03-11T08:26:29.996Z,81.56
2023-03-11T08:28:58.547Z,81.35
2023-03-11T08:31:29.237Z,81.32
2023-03-11T08:33:59.496Z,81.01
2023-03-11T08:36:27.664Z,80.93
2023-03-11T08:38:55.769Z,80.95
2023-03-11T08:41:25.449Z,80.78
2023-03-11T08:43:53.715Z,80.55
2023-03-11T08:46:25.941Z,80.23
2023-03-11T08:48:54.524Z,80.24
2023-03-11T08:51:23.609Z,80.01
2023-03-11T08:53:52.060Z,80.29
2023-03-11T08:56:20.546Z,80.14
2023-03-11T08:58:50.968Z,79.80
2023-03-11T09:01:20.354Z,79.63
2023-03-11T09:03:48.592Z,79.90
2023-03-11T09:06:17.830Z,79.82
2023-03-11T09:08:47.256Z,79.68
2023-03-11T09:11:17.815Z,79.87
2023-03-11T09:13:45.668Z,79.41
2023-03-11T09:16:18.253Z,79.30
2023-03-11T09:18:46.292Z,79.59
2023-03-11T09:21:14.141Z,79.54
2023-03-11T09:23:44.342Z,79.85
2023-03-11T09:26:12.734Z,79.31
2023-03-11T09:28:41.490Z,79.35
2023-03-11T09:31:09.774Z,79.37
2023-03-11T09:33:40.927Z,79.11
2023-03-11T09:36:12.933Z,79.13
2023-03-11T09:38:40.728Z,78.57
2023-03-11T09:41:19.892Z,78.09
2023-03-11T09:43:59.084Z,77.05
2023-03-11T09:46:52.467Z,76.59
2023-03-11T09:49:29.632Z,76.49
2023-03-11T09:52:08.004Z,75.62
2023-03-11T09:54:39.485Z,75.19
2023-03-11T09:57:10.684Z,75.61
2023-03-11T09:59:43.683Z,75.02
2023-03-11T10:02:16.045Z,74.85
2023-03-11T10:04:53.745Z,74.00
2023-03-11T10:07:26.694Z,74.15
2023-03-11T10:09:56.765Z,73.58
2023-03-11T10:12:45.974Z,73.26
2023-03-11T10:15:23.336Z,73.13
2023-03-11T10:18:05.288Z,72.62
2023-03-11T10:20:43.559Z,72.58
2023-03-11T10:23:23.474Z,72.42
2023-03-11T10:26:01.753Z,71.64
2023-03-11T10:28:34.672Z,71.26
2023-03-11T10:31:08.428Z,71.99
2023-03-11T10:33:46.591Z,72.33
2023-03-11T10:36:24.010Z,71.09
2023-03-11T10:38:55.184Z,71.22
2023-03-11T10:41:28.183Z,71.19
2023-03-11T10:44:01.499Z,70.91
2023-03-11T10:46:30.714Z,70.71
2023-03-11T10:48:58.860Z,70.84
2023-03-11T10:51:33.800Z,70.48
2023-03-11T10:54:03.614Z,70.34
2023-03-11T10:56:34.523Z,70.06
2023-03-11T10:59:03.647Z,69.45
2023-03-11T11:01:31.932Z,69.70
2023-03-11T11:04:02.713Z,68.81
2023-03-11T11:06:33.619Z,68.90
2023-03-11T11:09:19.500Z,68.21
2023-03-11T11:12:02.748Z,68.20
2023-03-11T11:14:47.343Z,67.97
2023-03-11T11:17:19.304Z,68.23
2023-03-11T11:19:48.593Z,68.42
2023-03-11T11:22:20.868Z,67.78
2023-03-11T11:24:51.564Z,67.09
2023-03-11T11:27:22.192Z,66.98
2023-03-11T11:30:12.418Z,66.45
2023-03-11T11:32:40.549Z,66.61
2023-03-11T11:35:12.908Z,66.41
2023-03-11T11:37:45.256Z,66.68
2023-03-11T11:40:24.520Z,66.55
2023-03-11T11:42:56.918Z,66.02
2023-03-11T11:45:31.919Z,65.57
2023-03-11T11:48:04.339Z,65.53
2023-03-11T11:50:36.173Z,65.06
2023-03-11T11:53:16.301Z,65.23
2023-03-11T11:55:49.477Z,65.31
2023-03-11T11:58:17.823Z,65.20
2023-03-11T12:00:57.382Z,65.08
2023-03-11T12:03:50.168Z,64.63
2023-03-11T12:06:24.208Z,64.53
2023-03-11T12:09:05.670Z,64.36
2023-03-11T12:11:41.901Z,64.20
2023-03-11T12:14:18.791Z,64.48
2023-03-11T12:16:57.001Z,63.89
2023-03-11T12:19:36.961Z,64.01
2023-03-11T12:22:38.076Z,63.60
2023-03-11T12:25:37.618Z,63.84
2023-03-11T12:28:17.297Z,64.16
2023-03-11T12:30:50.499Z,64.03
2023-03-11T12:33:26.379Z,63.18
2023-03-11T12:35:56.606Z,62.83
2023-03-11T12:38:32.465Z,62.42
2023-03-11T12:41:07.634Z,62.11
2023-03-11T12:43:59.295Z,61.96
2023-03-11T12:47:01.886Z,61.59
2023-03-11T12:49:31.703Z,61.18
2023-03-11T12:52:04.745Z,60.33
2023-03-11T12:54:34.701Z,60.12
2023-03-11T12:57:09.420Z,60.10
2023-03-11T12:59:54.969Z,60.44
2023-03-11T13:02:36.471Z,60.71
2023-03-11T13:05:15.579Z,60.53
2023-03-11T13:07:49.325Z,60.10
2023-03-11T13:10:35.917Z,60.13
2023-03-11T13:13:24.340Z,59.99
2023-03-11T13:15:52.565Z,60.83
2023-03-11T13:18:24.757Z,60.52
2023-03-11T13:20:57.700Z,60.15
2023-03-11T13:23:31.481Z,59.55
2023-03-11T13:26:31.793Z,59.01
2023-03-11T13:29:42.674Z,58.91
2023-03-11T13:32:52.099Z,58.83
2023-03-11T13:35:34.929Z,59.07
2023-03-11T13:38:20.033Z,58.46
2023-03-11T13:40:48.305Z,58.71
2023-03-11T13:43:18.777Z,57.84
2023-03-11T13:45:54.364Z,57.00
2023-03-11T13:48:28.260Z,56.24
2023-03-11T13:51:01.383Z,55.73
2023-03-11T13:53:33.689Z,55.34
2023-03-11T13:56:01.770Z,55.63
2023-03-11T13:58:30.275Z,55.65
2023-03-11T14:01:01.039Z,54.06
2023-03-11T14:03:41.770Z,53.65
2023-03-11T14:06:14.485Z,53.07
2023-03-11T14:08:43.076Z,52.13
2023-03-11T14:11:18.730Z,50.81
2023-03-11T14:13:48.086Z,50.70
2023-03-11T14:16:20.960Z,50.36
2023-03-11T14:18:50.377Z,50.44
2023-03-11T14:21:20.823Z,49.30
2023-03-11T14:23:50.594Z,47.96
2023-03-11T14:26:21.302Z,46.73
2023-03-11T14:28:52.418Z,45.74
2023-03-11T14:31:33.013Z,44.52
2023-03-11T14:34:06.829Z,44.33
2023-03-11T14:36:44.732Z,42.59
2023-03-11T14:39:27.697Z,41.39
2023-03-11T14:41:58.995Z,41.91
2023-03-11T14:44:28.962Z,41.42
2023-03-11T14:47:08.048Z,40.09
2023-03-11T14:49:36.434Z,39.94
2023-03-11T14:52:11.369Z,39.51
2023-03-11T14:54:39.733Z,40.01
2023-03-11T14:57:16.932Z,39.49
2023-03-11T14:59:46.276Z,39.64
2023-03-11T15:02:43.643Z,38.38
2023-03-11T15:05:19.528Z,38.97
2023-03-11T15:07:48.823Z,39.19
2023-03-11T15:10:16.750Z,38.51
2023-03-11T15:12:45.929Z,38.13
2023-03-11T15:15:26.131Z,37.57
2023-03-11T15:17:56.572Z,38.15
2023-03-11T15:20:27.755Z,38.18
2023-03-11T15:23:01.268Z,38.14
2023-03-11T15:25:31.785Z,38.25
2023-03-11T15:27:59.920Z,38.15
2023-03-11T15:30:29.724Z,37.70
2023-03-11T15:33:02.520Z,38.10
2023-03-11T15:35:31.663Z,38.91
2023-03-11T15:38:21.162Z,38.38
2023-03-11T15:40:55.211Z,39.59
2023-03-11T15:43:27.880Z,39.99
2023-03-11T15:45:58.500Z,40.43
2023-03-11T15:48:30.050Z,40.97
2023-03-11T15:51:00.061Z,41.54
2023-03-11T15:53:29.459Z,42.72
2023-03-11T15:56:06.945Z,43.08
2023-03-11T15:58:36.845Z,44.21
2023-03-11T16:01:05.008Z,44.36
2023-03-11T16:03:34.527Z,44.91
2023-03-11T16:06:02.703Z,45.36
2023-03-11T16:08:30.873Z,45.73
2023-03-11T16:11:01.589Z,46.20
2023-03-11T16:13:29.844Z,47.04
2023-03-11T16:15:57.779Z,47.26
2023-03-11T16:18:30.474Z,47.57
2023-03-11T16:21:00.013Z,47.90
2023-03-11T16:23:44.813Z,47.78
2023-03-11T16:26:18.616Z,47.76
2023-03-11T16:28:46.480Z,48.54
2023-03-11T16:31:14.397Z,48.40
2023-03-11T16:33:42.677Z,48.23
2023-03-11T16:36:12.710Z,48.61
2023-03-11T16:38:46.125Z,49.25
2023-03-11T16:41:15.928Z,49.05
2023-03-11T16:43:44.523Z,49.48
2023-03-11T16:46:12.601Z,49.63
2023-03-11T16:48:40.489Z,49.96
2023-03-11T16:51:08.439Z,50.34
2023-03-11T16:53:37.920Z,50.44
2023-03-11T16:56:06.780Z,50.60
2023-03-11T16:58:34.598Z,50.69
2023-03-11T17:01:02.680Z,50.79
2023-03-11T17:03:37.706Z,50.89
2023-03-11T17:06:11.002Z,51.08
2023-03-11T17:08:40.207Z,51.54
2023-03-11T17:11:16.095Z,51.43
2023-03-11T17:13:43.986Z,51.80
2023-03-11T17:16:11.885Z,51.62
2023-03-11T17:18:39.915Z,51.79
2023-03-11T17:21:08.739Z,51.96
2023-03-11T17:23:37.098Z,52.21
2023-03-11T17:26:11.130Z,52.35
2023-03-11T17:28:40.157Z,52.46
2023-03-11T17:31:12.525Z,52.60
2023-03-11T17:33:40.512Z,52.54
2023-03-11T17:36:10.861Z,52.59
2023-03-11T17:38:38.859Z,52.86
2023-03-11T17:41:12.659Z,53.13
2023-03-11T17:43:41.835Z,53.37
2023-03-11T17:46:12.405Z,53.56
2023-03-11T17:48:40.296Z,53.77
2023-03-11T17:51:10.254Z,53.82
2023-03-11T17:53:39.026Z,53.87
2023-03-11T17:56:08.048Z,54.22
2023-03-11T17:58:37.445Z,54.40
2023-03-11T18:01:07.706Z,54.73
2023-03-11T18:03:35.969Z,54.76
2023-03-11T18:06:09.374Z,54.96
2023-03-11T18:08:38.144Z,55.32
2023-03-11T18:11:08.436Z,55.18
2023-03-11T18:13:39.051Z,55.29
2023-03-11T18:16:09.288Z,55.66
2023-03-11T18:18:38.156Z,55.43
2023-03-11T18:21:08.385Z,55.84
2023-03-11T18:23:36.548Z,55.75
2023-03-11T18:26:07.433Z,55.72
2023-03-11T18:28:37.441Z,55.98
2023-03-11T18:31:08.962Z,55.97
2023-03-11T18:33:37.592Z,56.35
2023-03-11T18:36:13.696Z,56.13
2023-03-11T18:38:41.725Z,56.31
2023-03-11T18:41:09.596Z,56.16
2023-03-11T18:43:39.459Z,56.60
2023-03-11T18:46:09.511Z,57.09
2023-03-11T18:48:37.936Z,56.67
2023-03-11T18:51:07.203Z,56.74
2023-03-11T18:53:35.636Z,57.19
2023-03-11T18:56:05.626Z,56.83
2023-03-11T18:58:34.531Z,57.25
2023-03-11T19:01:12.443Z,57.13
2023-03-11T19:03:40.588Z,57.40
2023-03-11T19:06:09.341Z,57.57
2023-03-11T19:08:37.306Z,57.48
2023-03-11T19:11:07.637Z,57.61
2023-03-11T19:13:46.179Z,57.43
2023-03-11T19:16:18.910Z,57.31
2023-03-11T19:18:47.541Z,57.51
2023-03-11T19:21:17.096Z,57.78
2023-03-11T19:23:45.763Z,58.05
2023-03-11T19:26:14.143Z,57.97
2023-03-11T19:28:42.096Z,58.10
2023-03-11T19:31:10.066Z,58.25
2023-03-11T19:33:39.490Z,58.22
2023-03-11T19:36:08.785Z,58.68
2023-03-11T19:38:37.046Z,58.51
2023-03-11T19:41:06.649Z,58.79
2023-03-11T19:43:35.625Z,58.69
2023-03-11T19:46:03.898Z,58.90
2023-03-11T19:48:32.200Z,58.60
2023-03-11T19:51:02.358Z,58.52
2023-03-11T19:53:30.527Z,58.55
2023-03-11T19:55:59.165Z,58.61
2023-03-11T19:58:30.438Z,58.84
2023-03-11T20:00:58.889Z,59.33
2023-03-11T20:03:27.430Z,59.13
2023-03-11T20:05:58.049Z,59.19
2023-03-11T20:08:27.781Z,59.19
2023-03-11T20:10:55.706Z,59.73
2023-03-11T20:13:23.916Z,60.00
2023-03-11T20:15:51.996Z,59.59
2023-03-11T20:18:20.039Z,59.57
2023-03-11T20:20:47.909Z,59.54
2023-03-11T20:23:16.364Z,60.09
2023-03-11T20:25:45.568Z,59.87
2023-03-11T20:28:13.540Z,60.52
2023-03-11T20:30:41.553Z,60.06
2023-03-11T20:33:09.473Z,60.47
2023-03-11T20:35:37.528Z,60.68
2023-03-11T20:38:05.770Z,60.40
2023-03-11T20:40:33.887Z,60.82
2023-03-11T20:43:03.443Z,60.44
2023-03-11T20:45:31.715Z,60.66
2023-03-11T20:47:59.704Z,60.71
2023-03-11T20:50:27.579Z,60.89
2023-03-11T20:52:55.585Z,60.97
2023-03-11T20:55:23.759Z,61.00
2023-03-11T20:57:51.720Z,60.88
2023-03-11T21:00:22.380Z,61.28
2023-03-11T21:02:50.717Z,61.56
2023-03-11T21:05:18.877Z,61.62
2023-03-11T21:07:49.265Z,61.65
2023-03-11T21:10:17.443Z,61.28
2023-03-11T21:12:45.401Z,61.91
2023-03-11T21:15:14.009Z,61.67
2023-03-11T21:17:43.318Z,61.61
2023-03-11T21:20:13.247Z,61.96
2023-03-11T21:22:41.241Z,61.80
2023-03-11T21:25:10.027Z,62.32
2023-03-11T21:27:38.017Z,62.08
2023-03-11T21:30:06.902Z,62.62
2023-03-11T21:32:34.923Z,62.88
2023-03-11T21:35:05.122Z,63.18
2023-03-11T21:37:33.419Z,63.29
2023-03-11T21:40:01.385Z,63.19
2023-03-11T21:42:30.557Z,63.68
2023-03-11T21:44:58.784Z,63.69
2023-03-11T21:47:26.699Z,64.15
2023-03-11T21:49:54.734Z,64.24
2023-03-11T21:52:24.270Z,63.84
2023-03-11T21:54:52.359Z,64.29
2023-03-11T21:57:20.295Z,64.18
2023-03-11T21:59:48.672Z,64.09
2023-03-11T22:02:18.186Z,64.38
2023-03-11T22:04:46.229Z,64.71
2023-03-11T22:07:14.522Z,64.80
2023-03-11T22:09:43.800Z,64.85
2023-03-11T22:12:11.690Z,65.21
2023-03-11T22:14:39.699Z,65.15
2023-03-11T22:17:07.891Z,65.44
2023-03-11T22:19:35.909Z,65.36
2023-03-11T22:22:04.060Z,65.48
2023-03-11T22:24:32.032Z,65.52
2023-03-11T22:27:01.307Z,66.13
2023-03-11T22:29:29.282Z,65.71
2023-03-11T22:31:57.275Z,65.94
2023-03-11T22:34:25.253Z,66.37
2023-03-11T22:36:53.278Z,66.03
2023-03-11T22:39:21.260Z,66.39
2023-03-11T22:41:49.175Z,66.59
2023-03-11T22:44:18.481Z,67.03
2023-03-11T22:46:46.489Z,67.02
2023-03-11T22:49:14.363Z,67.60
2023-03-11T22:51:42.368Z,67.99
2023-03-11T22:54:10.368Z,67.94
2023-03-11T22:56:38.387Z,67.98
2023-03-11T22:59:06.441Z,68.34
2023-03-11T23:01:36.054Z,68.23
2023-03-11T23:04:03.981Z,68.13
2023-03-11T23:06:31.936Z,68.11
2023-03-11T23:09:00.398Z,68.44
2023-03-11T23:11:28.245Z,68.50
2023-03-11T23:13:56.916Z,68.18
2023-03-11T23:16:26.357Z,68.71
2023-03-11T23:18:57.474Z,68.73
2023-03-11T23:21:27.082Z,68.67
2023-03-11T23:23:55.382Z,68.89
2023-03-11T23:26:23.831Z,69.10
2023-03-11T23:28:52.218Z,69.15
2023-03-11T23:31:21.901Z,69.31
2023-03-11T23:33:50.160Z,69.31
2023-03-11T23:36:21.309Z,69.67
2023-03-11T23:38:49.823Z,69.55
2023-03-11T23:41:19.760Z,69.83
2023-03-11T23:43:47.619Z,70.15
2023-03-11T23:46:15.720Z,70.14
2023-03-11T23:48:43.976Z,70.48
2023-03-11T23:51:11.837Z,70.38
2023-03-11T23:53:41.531Z,70.12
2023-03-11T23:56:11.718Z,70.61
2023-03-11T23:58:39.731Z,70.61
